TimeCST,TemperatureF,Dew PointF,Humidity,Sea Level PressureIn,VisibilityMPH,Wind Direction,Wind SpeedMPH,Gust SpeedMPH,PrecipitationIn,Events,Conditions,WindDirDegrees,DateUTC
12:15 AM,20.8,11.7,68,30.20,10.0,West,15.0,-,N/A,,Scattered Clouds,280,2013-02-16 06:15:00
12:35 AM,20.1,11.3,69,30.20,10.0,WNW,16.1,-,N/A,,Scattered Clouds,290,2013-02-16 06:35:00
12:55 AM,19.4,9.9,66,30.19,10.0,WNW,17.3,21.9,N/A,,Clear,290,2013-02-16 06:55:00
1:15 AM,19.4,10.6,69,30.20,10.0,WNW,17.3,-,N/A,,Clear,290,2013-02-16 07:15:00
1:35 AM,18.5,10.4,71,30.20,10.0,WNW,15.0,-,N/A,,Clear,300,2013-02-16 07:35:00
1:55 AM,18.1,9.5,69,30.20,10.0,WNW,13.8,-,N/A,,Clear,300,2013-02-16 07:55:00
2:15 AM,17.6,9.5,71,30.19,10.0,WNW,11.5,-,N/A,,Clear,290,2013-02-16 08:15:00
2:35 AM,17.6,8.6,68,30.19,10.0,WNW,12.7,-,N/A,,Clear,290,2013-02-16 08:35:00
2:55 AM,16.9,8.6,70,30.18,10.0,WNW,15.0,-,N/A,,Clear,300,2013-02-16 08:55:00
3:15 AM,16.7,8.6,70,30.18,10.0,WNW,12.7,-,N/A,,Clear,290,2013-02-16 09:15:00
3:35 AM,16.5,7.7,68,30.18,10.0,WNW,11.5,17.3,N/A,,Clear,300,2013-02-16 09:35:00
3:55 AM,16.3,8.6,72,30.18,10.0,WNW,12.7,-,N/A,,Clear,300,2013-02-16 09:55:00
4:15 AM,16.0,7.7,70,30.18,10.0,WNW,11.5,-,N/A,,Clear,300,2013-02-16 10:15:00
4:35 AM,15.6,7.9,72,30.18,10.0,WNW,10.4,-,N/A,,Clear,300,2013-02-16 10:35:00
4:55 AM,15.6,7.7,71,30.18,10.0,WNW,9.2,-,N/A,,Clear,300,2013-02-16 10:55:00
5:15 AM,15.6,8.1,72,30.18,10.0,WNW,11.5,-,N/A,,Clear,300,2013-02-16 11:15:00
5:35 AM,15.8,8.6,73,30.18,10.0,WNW,10.4,-,N/A,,Clear,300,2013-02-16 11:35:00
5:55 AM,14.9,7.7,73,30.18,10.0,WNW,10.4,-,N/A,,Clear,300,2013-02-16 11:55:00
6:15 AM,14.9,8.1,74,30.18,10.0,NW,9.2,-,N/A,,Clear,310,2013-02-16 12:15:00
6:35 AM,14.0,8.6,79,30.18,10.0,NW,8.1,-,N/A,,Clear,310,2013-02-16 12:35:00
6:55 AM,14.7,8.4,76,30.19,10.0,WNW,9.2,-,N/A,,Clear,300,2013-02-16 12:55:00
7:15 AM,14.9,8.4,76,30.19,10.0,WNW,9.2,-,N/A,,Clear,300,2013-02-16 13:15:00
7:35 AM,16.2,8.6,72,30.20,10.0,WNW,9.2,-,N/A,,Clear,300,2013-02-16 13:35:00
7:55 AM,16.7,8.4,70,30.20,10.0,WNW,9.2,-,N/A,,Clear,300,2013-02-16 13:55:00
8:15 AM,17.6,7.9,66,30.20,10.0,WNW,9.2,-,N/A,,Clear,300,2013-02-16 14:15:00
8:35 AM,18.1,7.7,64,30.20,10.0,WNW,10.4,-,N/A,,Clear,300,2013-02-16 14:35:00
8:55 AM,19.0,7.3,60,30.20,10.0,WNW,9.2,-,N/A,,Clear,300,2013-02-16 14:55:00
9:15 AM,19.4,7.7,60,30.20,10.0,WNW,10.4,-,N/A,,Clear,300,2013-02-16 15:15:00
9:35 AM,19.9,7.5,59,30.20,10.0,NW,11.5,-,N/A,,Scattered Clouds,310,2013-02-16 15:35:00
12:15 PM,23.7,10.0,56,30.15,10.0,WNW,13.8,17.3,N/A,,Overcast,290,2013-02-16 18:15:00
12:35 PM,24.6,11.3,57,30.14,10.0,WNW,16.1,23.0,N/A,,Overcast,290,2013-02-16 18:35:00
12:55 PM,24.4,11.1,57,30.14,10.0,WNW,12.7,21.9,N/A,,Overcast,290,2013-02-16 18:55:00
1:15 PM,25.2,12.7,59,30.14,10.0,WNW,13.8,18.4,N/A,,Overcast,290,2013-02-16 19:15:00
1:35 PM,24.6,11.8,58,30.13,10.0,WNW,15.0,-,N/A,,Overcast,300,2013-02-16 19:35:00
1:55 PM,24.8,11.7,57,30.13,10.0,WNW,12.7,19.6,N/A,,Overcast,290,2013-02-16 19:55:00
2:15 PM,25.3,12.2,58,30.13,10.0,WNW,13.8,19.6,N/A,,Overcast,290,2013-02-16 20:15:00
2:35 PM,24.8,12.0,58,30.13,10.0,NW,17.3,20.7,N/A,,Mostly Cloudy,310,2013-02-16 20:35:00
2:55 PM,25.9,12.0,56,30.13,10.0,WNW,16.1,25.3,N/A,,Mostly Cloudy,300,2013-02-16 20:55:00
3:15 PM,24.6,11.3,57,30.13,10.0,WNW,15.0,-,N/A,,Mostly Cloudy,300,2013-02-16 21:15:00
3:35 PM,24.6,11.3,57,30.13,10.0,WNW,15.0,-,N/A,,Mostly Cloudy,300,2013-02-16 21:35:00
3:55 PM,24.6,10.9,56,30.13,10.0,WNW,15.0,-,N/A,,Overcast,300,2013-02-16 21:55:00
4:15 PM,24.1,10.4,56,30.13,10.0,WNW,12.7,-,N/A,,Mostly Cloudy,300,2013-02-16 22:15:00
4:35 PM,24.1,10.8,57,30.13,10.0,WNW,12.7,-,N/A,,Mostly Cloudy,300,2013-02-16 22:35:00
4:55 PM,23.9,10.4,56,30.14,10.0,WNW,13.8,-,N/A,,Scattered Clouds,300,2013-02-16 22:55:00
5:15 PM,23.0,10.4,59,30.14,10.0,WNW,10.4,-,N/A,,Scattered Clouds,300,2013-02-16 23:15:00
5:35 PM,22.6,10.4,59,30.15,10.0,West,10.4,-,N/A,,Clear,280,2013-02-16 23:35:00
5:55 PM,21.9,12.0,66,30.15,10.0,ENE,8.1,-,N/A,,Scattered Clouds,60,2013-02-16 23:55:00
6:15 PM,21.0,11.8,68,30.16,10.0,ENE,9.2,-,N/A,,Scattered Clouds,70,2013-02-17 00:15:00
6:35 PM,20.1,11.3,69,30.17,10.0,ENE,10.4,-,N/A,,Clear,70,2013-02-17 00:35:00
6:55 PM,19.4,10.4,68,30.17,10.0,ENE,11.5,-,N/A,,Scattered Clouds,70,2013-02-17 00:55:00
7:15 PM,19.0,10.4,69,30.18,10.0,ENE,9.2,-,N/A,,Scattered Clouds,60,2013-02-17 01:15:00
7:35 PM,19.4,10.4,68,30.18,10.0,ENE,6.9,-,N/A,,Mostly Cloudy,70,2013-02-17 01:35:00
7:55 PM,19.2,10.0,67,30.18,10.0,NE,9.2,-,N/A,,Overcast,50,2013-02-17 01:55:00
8:15 PM,18.5,8.8,66,30.19,10.0,ENE,6.9,-,N/A,,Overcast,60,2013-02-17 02:15:00
8:35 PM,17.6,8.6,68,30.19,10.0,NE,6.9,-,N/A,,Overcast,50,2013-02-17 02:35:00
8:55 PM,17.6,8.6,68,30.19,10.0,NE,8.1,-,N/A,,Overcast,50,2013-02-17 02:55:00
9:15 PM,17.6,7.9,66,30.19,10.0,NE,5.8,-,N/A,,Overcast,50,2013-02-17 03:15:00
9:35 PM,16.9,7.5,67,30.19,10.0,NE,5.8,-,N/A,,Overcast,50,2013-02-17 03:35:00
9:55 PM,16.3,8.6,72,30.19,10.0,ENE,4.6,-,N/A,,Overcast,70,2013-02-17 03:55:00
10:15 PM,16.2,8.2,71,30.19,10.0,ENE,4.6,-,N/A,,Mostly Cloudy,70,2013-02-17 04:15:00
10:35 PM,16.3,7.9,69,30.19,10.0,Calm,Calm,-,N/A,,Overcast,0,2013-02-17 04:35:00
10:55 PM,16.3,8.6,72,30.19,10.0,Calm,Calm,-,N/A,,Overcast,0,2013-02-17 04:55:00
11:15 PM,16.7,8.6,70,30.19,10.0,Calm,Calm,-,N/A,,Overcast,0,2013-02-17 05:15:00
11:35 PM,16.3,7.7,69,30.18,10.0,ENE,6.9,-,N/A,,Overcast,70,2013-02-17 05:35:00
11:55 PM,16.2,7.2,68,30.18,10.0,ENE,5.8,-,N/A,,Mostly Cloudy,70,2013-02-17 05:55:00